Details for Ryanair at EPMO




Go Back


Latest METAR
Local Time

EPMO 180430Z 33004KT 310V010 9999 BKN026 M01/M01 Q1023

18/02/2018, 05:35:23

Description
Results
Ryanair Logo
Number of Pilots based at EPMO
0 Pilots Based here
Number of Ryanair Flights Departed from EPMO
0 Flights Departed
Number of Ryanair Flights Arrived at EPMO
0 Flights Arrived
Number of Ryanair Schedules Departing from EPMO
85 Schedules
Number of Ryanair Schedules Arriving at EPMO
85 Schedules
Number of Ryanair Schedules Departing from EPMO availible today
28 Schedules Today
Number of Ryanair Schedules Arriving at EPMO availible today
28 Schedules Today
Average Landing Rate at EPMO
0 fpm
Ryanair Average Landing Rate at EPMO
0 fpm
Total Fuel Purchased at EPMO by Ryanair
0.00 kgs / 0.00 lbs

Pilots Based at EPMO


Pilot ID
Pilot Name
Pilot Rank
No. of Flights
No. of Flying Hours
There are no pilots assigned to this hub!   Will you be the first?
Content